createdAt,value
2022-11-08T00:00:13.411Z,82.05
2022-11-08T00:02:40.374Z,81.55
2022-11-08T00:05:26.438Z,81.44
2022-11-08T00:08:11.677Z,82.18
2022-11-08T00:10:56.921Z,82.12
2022-11-08T00:13:42.081Z,81.88
2022-11-08T00:16:09.003Z,81.79
2022-11-08T00:18:35.974Z,81.85
2022-11-08T00:21:03.518Z,82.00
2022-11-08T00:23:30.771Z,82.13
2022-11-08T00:25:57.790Z,82.14
2022-11-08T00:28:24.761Z,81.89
2022-11-08T00:30:51.706Z,82.17
2022-11-08T00:33:18.618Z,82.43
2022-11-08T00:35:45.587Z,81.92
2022-11-08T00:38:12.529Z,82.52
2022-11-08T00:40:39.463Z,82.15
2022-11-08T00:43:06.389Z,81.99
2022-11-08T00:45:33.316Z,82.33
2022-11-08T00:48:00.235Z,82.38
2022-11-08T00:50:27.185Z,82.29
2022-11-08T00:52:54.124Z,82.63
2022-11-08T00:55:21.082Z,82.89
2022-11-08T00:57:58.964Z,82.81
2022-11-08T01:00:27.331Z,82.67
2022-11-08T01:03:14.424Z,82.91
2022-11-08T01:05:41.906Z,82.68
2022-11-08T01:08:10.199Z,82.48
2022-11-08T01:10:40.384Z,82.50
2022-11-08T01:13:07.307Z,82.74
2022-11-08T01:15:37.166Z,82.96
2022-11-08T01:18:04.919Z,82.57
2022-11-08T01:20:32.497Z,83.14
2022-11-08T01:22:59.775Z,83.13
2022-11-08T01:25:26.699Z,83.21
2022-11-08T01:27:53.775Z,83.22
2022-11-08T01:30:20.713Z,83.14
2022-11-08T01:32:47.663Z,83.39
2022-11-08T01:35:14.632Z,83.01
2022-11-08T01:37:41.577Z,83.06
2022-11-08T01:40:09.465Z,83.04
2022-11-08T01:42:36.398Z,83.29
2022-11-08T01:45:09.342Z,83.41
2022-11-08T01:47:36.264Z,83.15
2022-11-08T01:50:16.384Z,83.15
2022-11-08T01:52:51.145Z,83.15
2022-11-08T01:55:31.750Z,83.59
2022-11-08T01:58:03.299Z,83.92
2022-11-08T02:00:30.519Z,83.70
2022-11-08T02:03:01.748Z,83.56
2022-11-08T02:05:30.842Z,83.69
2022-11-08T02:08:33.532Z,83.54
2022-11-08T02:11:02.100Z,83.79
2022-11-08T02:13:31.797Z,83.49
2022-11-08T02:16:00.251Z,83.40
2022-11-08T02:18:31.761Z,83.30
2022-11-08T02:21:42.157Z,83.39
2022-11-08T02:24:12.957Z,83.43
2022-11-08T02:26:41.241Z,83.30
2022-11-08T02:29:25.528Z,83.40
2022-11-08T02:31:53.633Z,82.90
2022-11-08T02:34:35.815Z,83.29
2022-11-08T02:37:04.163Z,83.14
2022-11-08T02:39:32.859Z,82.90
2022-11-08T02:42:01.157Z,82.35
2022-11-08T02:44:28.394Z,82.35
2022-11-08T02:46:55.347Z,82.54
2022-11-08T02:49:22.472Z,82.43
2022-11-08T02:51:52.432Z,82.60
2022-11-08T02:54:19.529Z,82.81
2022-11-08T02:56:46.462Z,82.66
2022-11-08T02:59:13.526Z,82.99
2022-11-08T03:01:40.525Z,83.07
2022-11-08T03:04:07.653Z,83.04
2022-11-08T03:06:34.613Z,82.53
2022-11-08T03:09:01.693Z,82.95
2022-11-08T03:11:29.042Z,82.69
2022-11-08T03:13:56.046Z,83.13
2022-11-08T03:16:23.050Z,82.74
2022-11-08T03:18:50.022Z,82.43
2022-11-08T03:21:16.966Z,82.92
2022-11-08T03:23:44.002Z,82.72
2022-11-08T03:26:11.031Z,82.54
2022-11-08T03:28:38.078Z,82.43
2022-11-08T03:31:05.088Z,82.22
2022-11-08T03:33:32.051Z,82.25
2022-11-08T03:35:59.056Z,81.83
2022-11-08T03:38:26.003Z,81.94
2022-11-08T03:40:52.949Z,81.64
2022-11-08T03:43:19.897Z,81.52
2022-11-08T03:45:46.928Z,81.47
2022-11-08T03:48:13.906Z,81.54
2022-11-08T03:50:40.963Z,81.19
2022-11-08T03:53:08.059Z,81.05
2022-11-08T03:55:35.015Z,81.22
2022-11-08T03:58:01.939Z,80.71
2022-11-08T04:00:29.509Z,81.41
2022-11-08T04:03:02.992Z,80.94
2022-11-08T04:05:32.324Z,80.84
2022-11-08T04:08:01.257Z,80.99
2022-11-08T04:10:28.569Z,80.62
2022-11-08T04:13:16.823Z,81.33
2022-11-08T04:15:44.071Z,81.23
2022-11-08T04:18:29.225Z,80.25
2022-11-08T04:21:18.964Z,80.46
2022-11-08T04:23:48.229Z,80.10
2022-11-08T04:26:15.682Z,80.36
2022-11-08T04:28:42.876Z,80.02
2022-11-08T04:31:18.922Z,79.34
2022-11-08T04:33:46.195Z,79.93
2022-11-08T04:36:16.134Z,80.29
2022-11-08T04:38:43.524Z,79.99
2022-11-08T04:41:13.868Z,80.15
2022-11-08T04:43:41.492Z,80.23
2022-11-08T04:46:21.435Z,80.22
2022-11-08T04:48:52.384Z,80.30
2022-11-08T04:51:26.794Z,79.94
2022-11-08T04:53:57.354Z,80.15
2022-11-08T04:56:27.228Z,80.46
2022-11-08T04:58:57.652Z,80.24
2022-11-08T05:01:28.167Z,80.09
2022-11-08T05:03:55.721Z,80.37
2022-11-08T05:06:26.626Z,80.52
2022-11-08T05:08:54.576Z,80.27
2022-11-08T05:11:24.723Z,80.27
2022-11-08T05:13:52.232Z,80.26
2022-11-08T05:16:29.285Z,80.43
2022-11-08T05:18:56.725Z,80.64
2022-11-08T05:21:43.054Z,80.59
2022-11-08T05:24:14.357Z,80.73
2022-11-08T05:26:44.186Z,80.58
2022-11-08T05:29:13.603Z,80.63
2022-11-08T05:31:41.102Z,80.12
2022-11-08T05:34:08.299Z,80.31
2022-11-08T05:36:35.353Z,80.28
2022-11-08T05:39:02.378Z,80.72
2022-11-08T05:41:30.048Z,80.89
2022-11-08T05:43:57.435Z,80.58
2022-11-08T05:46:24.697Z,80.94
2022-11-08T05:48:52.047Z,80.88
2022-11-08T05:51:19.934Z,81.16
2022-11-08T05:53:48.509Z,80.89
2022-11-08T05:56:16.241Z,80.86
2022-11-08T05:58:43.520Z,81.28
2022-11-08T06:01:14.099Z,81.45
2022-11-08T06:03:41.441Z,81.24
2022-11-08T06:06:15.073Z,81.14
2022-11-08T06:08:44.074Z,81.43
2022-11-08T06:11:23.770Z,81.65
2022-11-08T06:13:51.803Z,81.82
2022-11-08T06:16:21.967Z,81.63
2022-11-08T06:18:49.591Z,81.42
2022-11-08T06:21:20.287Z,81.46
2022-11-08T06:23:47.749Z,81.52
2022-11-08T06:26:14.881Z,81.64
2022-11-08T06:28:41.823Z,81.39
2022-11-08T06:31:08.842Z,81.95
2022-11-08T06:33:35.797Z,81.86
2022-11-08T06:36:02.763Z,81.32
2022-11-08T06:38:30.072Z,81.64
2022-11-08T06:41:04.738Z,81.51
2022-11-08T06:43:31.679Z,81.46
2022-11-08T06:46:02.760Z,81.86
2022-11-08T06:48:35.514Z,81.68
2022-11-08T06:51:03.805Z,82.31
2022-11-08T06:53:31.107Z,82.22
2022-11-08T06:56:00.569Z,82.10
2022-11-08T06:58:32.760Z,82.01
2022-11-08T07:01:04.404Z,81.97
2022-11-08T07:03:32.277Z,81.69
2022-11-08T07:06:02.891Z,82.11
2022-11-08T07:08:30.959Z,82.00
2022-11-08T07:10:58.082Z,81.80
2022-11-08T07:13:25.087Z,81.85
2022-11-08T07:15:52.080Z,81.43
2022-11-08T07:18:20.049Z,81.94
2022-11-08T07:20:47.493Z,81.85
2022-11-08T07:23:14.682Z,81.15
2022-11-08T07:25:42.055Z,81.43
2022-11-08T07:28:18.035Z,81.20
2022-11-08T07:30:47.196Z,81.05
2022-11-08T07:33:15.635Z,81.38
2022-11-08T07:35:47.088Z,80.90
2022-11-08T07:38:14.351Z,81.14
2022-11-08T07:40:41.280Z,80.42
2022-11-08T07:43:23.424Z,80.67
2022-11-08T07:45:56.734Z,80.63
2022-11-08T07:48:24.687Z,80.50
2022-11-08T07:50:51.907Z,80.90
2022-11-08T07:53:39.093Z,80.28
2022-11-08T07:56:17.177Z,80.39
2022-11-08T07:58:53.235Z,80.55
2022-11-08T08:01:25.049Z,80.22
2022-11-08T08:04:17.197Z,80.42
2022-11-08T08:06:53.142Z,80.29
2022-11-08T08:09:21.129Z,79.95
2022-11-08T08:12:10.617Z,80.29
2022-11-08T08:15:00.074Z,80.07
2022-11-08T08:17:33.848Z,80.27
2022-11-08T08:20:15.873Z,79.84
2022-11-08T08:22:48.858Z,80.11
2022-11-08T08:25:38.702Z,80.10
2022-11-08T08:28:06.803Z,80.06
2022-11-08T08:30:41.855Z,80.08
2022-11-08T08:33:32.467Z,80.01
2022-11-08T08:36:07.791Z,79.94
2022-11-08T08:38:43.145Z,80.18
2022-11-08T08:41:21.283Z,80.46
2022-11-08T08:43:48.227Z,80.65
2022-11-08T08:46:27.104Z,80.53
2022-11-08T08:49:00.858Z,80.59
2022-11-08T08:51:30.485Z,80.60
2022-11-08T08:54:14.714Z,80.48
2022-11-08T08:56:59.946Z,80.65
2022-11-08T09:02:15.840Z,80.44
2022-11-08T09:04:48.676Z,80.51
2022-11-08T09:07:19.393Z,80.33
2022-11-08T09:09:47.438Z,80.61
2022-11-08T09:12:14.857Z,80.50
2022-11-08T09:14:41.863Z,80.40
2022-11-08T09:17:08.796Z,81.33
2022-11-08T09:19:35.716Z,81.70
2022-11-08T09:22:02.705Z,81.85
2022-11-08T09:24:29.688Z,81.08
2022-11-08T09:26:56.582Z,80.79
2022-11-08T09:29:23.519Z,80.88
2022-11-08T09:31:50.666Z,79.86
2022-11-08T09:34:20.622Z,79.49
2022-11-08T09:36:49.052Z,78.48
2022-11-08T09:39:16.640Z,79.13
2022-11-08T09:42:19.913Z,78.12
2022-11-08T09:45:11.324Z,78.63
2022-11-08T09:47:42.850Z,79.16
2022-11-08T09:50:37.514Z,78.36
2022-11-08T09:53:19.715Z,77.76
2022-11-08T09:56:06.279Z,77.51
2022-11-08T09:58:46.067Z,77.89
2022-11-08T10:01:14.249Z,78.55
2022-11-08T10:03:50.078Z,78.46
2022-11-08T10:06:47.560Z,80.13
2022-11-08T10:09:30.602Z,79.78
2022-11-08T10:12:20.793Z,78.49
2022-11-08T10:14:56.475Z,79.33
2022-11-08T10:18:08.175Z,79.69
2022-11-08T10:21:21.360Z,79.80
2022-11-08T10:24:02.762Z,78.76
2022-11-08T10:26:39.528Z,79.62
2022-11-08T10:29:20.492Z,77.81
2022-11-08T10:31:48.855Z,77.37
2022-11-08T10:34:22.450Z,77.99
2022-11-08T10:36:54.572Z,78.22
2022-11-08T10:39:32.400Z,79.01
2022-11-08T10:42:16.832Z,77.86
2022-11-08T10:44:44.396Z,76.38
2022-11-08T10:47:25.613Z,77.21
2022-11-08T10:49:54.930Z,76.23
2022-11-08T10:53:04.298Z,76.57
2022-11-08T10:55:38.448Z,75.69
2022-11-08T10:58:39.132Z,74.37
2022-11-08T11:01:16.517Z,75.62
2022-11-08T11:03:46.297Z,73.88
2022-11-08T11:06:32.773Z,73.17
2022-11-08T11:09:17.037Z,73.40
2022-11-08T11:11:45.275Z,73.78
2022-11-08T11:14:22.541Z,74.48
2022-11-08T11:17:18.630Z,71.90
2022-11-08T11:19:57.980Z,72.80
2022-11-08T11:22:34.531Z,75.40
2022-11-08T11:25:18.409Z,73.21
2022-11-08T11:27:57.950Z,74.40
2022-11-08T11:30:34.869Z,72.70
2022-11-08T11:33:13.738Z,71.79
2022-11-08T11:35:47.971Z,73.93
2022-11-08T11:38:58.036Z,72.27
2022-11-08T11:41:43.152Z,72.50
2022-11-08T11:44:20.472Z,71.46
2022-11-08T11:47:17.171Z,71.33
2022-11-08T11:49:47.280Z,73.16
2022-11-08T11:52:19.806Z,73.30
2022-11-08T11:54:49.478Z,73.83
2022-11-08T11:57:56.535Z,75.07
2022-11-08T12:00:23.620Z,73.56
2022-11-08T12:03:18.432Z,73.31
2022-11-08T12:06:07.005Z,72.55
2022-11-08T12:09:11.753Z,73.91
2022-11-08T12:12:03.740Z,72.05
2022-11-08T12:14:56.071Z,74.46
2022-11-08T12:17:52.168Z,72.66
2022-11-08T12:20:30.114Z,73.05
2022-11-08T12:23:38.671Z,72.79
2022-11-08T12:26:20.722Z,74.28
2022-11-08T12:29:30.400Z,72.44
2022-11-08T12:32:39.689Z,74.67
2022-11-08T12:35:43.174Z,73.17
2022-11-08T12:38:37.389Z,74.18
2022-11-08T12:41:13.160Z,74.07
2022-11-08T12:43:52.669Z,74.33
2022-11-08T12:46:21.341Z,72.14
2022-11-08T12:49:11.278Z,73.23
2022-11-08T12:51:57.006Z,72.94
2022-11-08T12:54:35.506Z,72.53
2022-11-08T12:57:12.170Z,70.83
2022-11-08T12:59:45.572Z,71.65
2022-11-08T13:02:37.543Z,73.31
2022-11-08T13:05:09.223Z,72.55
2022-11-08T13:08:12.220Z,73.47
2022-11-08T13:11:02.983Z,72.57
2022-11-08T13:13:50.095Z,72.86
2022-11-08T13:16:24.269Z,73.51
2022-11-08T13:19:01.319Z,72.87
2022-11-08T13:21:28.340Z,72.65
2022-11-08T13:24:42.759Z,70.97
2022-11-08T13:27:30.189Z,71.72
2022-11-08T13:30:16.036Z,72.58
2022-11-08T13:32:42.887Z,71.97
2022-11-08T13:35:49.889Z,72.70
2022-11-08T13:38:52.584Z,72.50
2022-11-08T13:41:26.106Z,72.33
2022-11-08T13:43:55.196Z,72.07
2022-11-08T13:46:28.016Z,72.80
2022-11-08T13:49:13.304Z,71.97
2022-11-08T13:51:42.253Z,72.18
2022-11-08T13:54:21.413Z,71.85
2022-11-08T13:56:55.181Z,72.28
2022-11-08T13:59:31.250Z,70.69
2022-11-08T14:01:58.533Z,70.75
2022-11-08T14:04:38.536Z,72.22
2022-11-08T14:07:34.175Z,70.85
2022-11-08T14:10:23.634Z,72.22
2022-11-08T14:12:55.585Z,71.95
2022-11-08T14:15:48.082Z,71.67
2022-11-08T14:18:29.285Z,70.93
2022-11-08T14:20:57.131Z,71.19
2022-11-08T14:23:40.439Z,71.05
2022-11-08T14:26:25.315Z,70.87
2022-11-08T14:28:53.368Z,71.58
2022-11-08T14:31:27.349Z,70.97
2022-11-08T14:33:55.418Z,70.45
2022-11-08T14:36:23.959Z,71.54
2022-11-08T14:39:03.131Z,70.78
2022-11-08T14:41:33.165Z,70.53
2022-11-08T14:44:02.434Z,70.70
2022-11-08T14:46:39.852Z,69.86
2022-11-08T14:49:41.934Z,70.74
2022-11-08T14:52:18.858Z,71.04
2022-11-08T14:54:48.439Z,71.02
2022-11-08T14:57:43.322Z,71.09
2022-11-08T15:00:13.399Z,71.10
2022-11-08T15:02:44.901Z,71.24
2022-11-08T15:05:53.975Z,71.76
2022-11-08T15:08:52.589Z,70.82
2022-11-08T15:11:33.992Z,71.27
2022-11-08T15:14:08.372Z,71.06
2022-11-08T15:16:49.566Z,71.41
2022-11-08T15:19:31.754Z,71.21
2022-11-08T15:22:01.596Z,71.52
2022-11-08T15:24:40.260Z,71.63
2022-11-08T15:27:12.917Z,71.81
2022-11-08T15:30:08.493Z,71.19
2022-11-08T15:32:39.037Z,71.49
2022-11-08T15:35:19.570Z,71.00
2022-11-08T15:37:48.451Z,71.86
2022-11-08T15:40:31.837Z,71.08
2022-11-08T15:43:00.180Z,71.46
2022-11-08T15:45:32.476Z,71.71
2022-11-08T15:48:07.147Z,70.72
2022-11-08T15:50:34.108Z,70.73
2022-11-08T15:53:03.855Z,70.81
2022-11-08T15:55:37.380Z,70.79
2022-11-08T15:58:05.026Z,70.30
2022-11-08T16:00:36.684Z,70.65
2022-11-08T16:03:04.176Z,70.74
2022-11-08T16:05:32.080Z,71.08
2022-11-08T16:07:59.535Z,70.86
2022-11-08T16:10:36.823Z,70.87
2022-11-08T16:13:04.362Z,70.38
2022-11-08T16:15:34.714Z,70.83
2022-11-08T16:18:02.689Z,70.94
2022-11-08T16:20:35.780Z,70.96
2022-11-08T16:23:06.676Z,70.70
2022-11-08T16:25:50.326Z,70.60
2022-11-08T16:28:35.226Z,70.55
2022-11-08T16:31:05.277Z,70.92
2022-11-08T16:33:34.458Z,70.72
2022-11-08T16:36:09.891Z,70.86
2022-11-08T16:38:37.916Z,71.06
2022-11-08T16:41:05.475Z,71.02
2022-11-08T16:43:33.212Z,70.71
2022-11-08T16:46:06.743Z,70.47
2022-11-08T16:48:37.199Z,70.73
2022-11-08T16:51:12.553Z,70.76
2022-11-08T16:53:39.568Z,70.55
2022-11-08T16:56:06.564Z,70.52
2022-11-08T16:58:33.577Z,70.89
2022-11-08T17:01:01.136Z,70.07
2022-11-08T17:03:30.717Z,70.48
2022-11-08T17:05:58.362Z,70.42
2022-11-08T17:08:26.356Z,70.33
2022-11-08T17:10:54.296Z,69.81
2022-11-08T17:13:22.012Z,69.95
2022-11-08T17:15:50.510Z,70.40
2022-11-08T17:18:21.372Z,69.62
2022-11-08T17:20:48.915Z,69.90
2022-11-08T17:23:17.617Z,69.91
2022-11-08T17:27:20.539Z,69.21
2022-11-08T17:29:47.611Z,69.48
2022-11-08T17:32:14.573Z,69.71
2022-11-08T17:34:41.602Z,70.20
2022-11-08T17:37:08.576Z,69.19
2022-11-08T17:39:35.557Z,68.95
2022-11-08T17:42:02.928Z,69.59
2022-11-08T17:44:29.903Z,68.80
2022-11-08T17:46:56.834Z,69.47
2022-11-08T17:49:23.888Z,69.18
2022-11-08T17:51:50.944Z,69.50
2022-11-08T17:54:18.135Z,68.94
2022-11-08T17:56:45.462Z,69.39
2022-11-08T17:59:12.482Z,68.97
2022-11-08T18:01:39.671Z,68.32
2022-11-08T18:04:06.751Z,68.50
2022-11-08T18:06:33.850Z,68.61
2022-11-08T18:09:00.858Z,68.65
2022-11-08T18:11:27.854Z,68.98
2022-11-08T18:13:54.895Z,68.72
2022-11-08T18:16:24.625Z,68.64
2022-11-08T18:18:51.950Z,68.53
2022-11-08T18:21:19.642Z,68.67
2022-11-08T18:23:48.158Z,68.71
2022-11-08T18:26:17.004Z,68.25
2022-11-08T18:28:45.241Z,68.31
2022-11-08T18:31:16.370Z,68.44
2022-11-08T18:33:44.521Z,68.67
2022-11-08T18:36:19.049Z,68.08
2022-11-08T18:38:47.009Z,68.44
2022-11-08T18:41:18.500Z,68.18
2022-11-08T18:43:46.568Z,68.51
2022-11-08T18:46:17.800Z,68.86
2022-11-08T18:48:45.621Z,68.97
2022-11-08T18:51:15.636Z,68.46
2022-11-08T18:53:43.047Z,68.34
2022-11-08T18:56:11.560Z,67.78
2022-11-08T18:58:38.955Z,68.17
2022-11-08T19:01:06.914Z,67.46
2022-11-08T19:03:35.418Z,67.80
2022-11-08T19:06:02.684Z,68.27
2022-11-08T19:08:30.618Z,67.69
2022-11-08T19:11:06.086Z,67.54
2022-11-08T19:13:35.592Z,67.29
2022-11-08T19:16:10.128Z,67.92
2022-11-08T19:18:37.632Z,67.36
2022-11-08T19:21:20.436Z,66.72
2022-11-08T19:23:48.558Z,67.39
2022-11-08T19:26:22.105Z,66.94
2022-11-08T19:28:51.192Z,66.88
2022-11-08T19:31:21.624Z,66.99
2022-11-08T19:33:51.897Z,66.75
2022-11-08T19:36:23.265Z,66.96
2022-11-08T19:38:52.132Z,67.20
2022-11-08T19:41:22.707Z,67.22
2022-11-08T19:43:50.554Z,67.18
2022-11-08T19:46:30.920Z,67.69
2022-11-08T19:49:02.641Z,67.07
2022-11-08T19:51:34.257Z,66.97
2022-11-08T19:54:08.651Z,67.36
2022-11-08T19:57:03.706Z,67.35
2022-11-08T19:59:23.858Z,66.92
2022-11-08T20:01:50.983Z,67.72
2022-11-08T20:04:18.593Z,67.50
2022-11-08T20:06:48.644Z,67.41
2022-11-08T20:09:15.861Z,67.34
2022-11-08T20:11:42.945Z,67.13
2022-11-08T20:14:13.219Z,67.22
2022-11-08T20:16:43.824Z,67.65
2022-11-08T20:19:16.608Z,67.09
2022-11-08T20:21:46.194Z,66.51
2022-11-08T20:24:15.222Z,66.76
2022-11-08T20:26:42.885Z,67.28
2022-11-08T20:29:10.217Z,66.91
2022-11-08T20:31:38.734Z,66.48
2022-11-08T20:34:09.917Z,67.50
2022-11-08T20:36:37.696Z,67.35
2022-11-08T20:39:07.597Z,67.36
2022-11-08T20:41:37.448Z,67.15
2022-11-08T20:44:06.595Z,67.02
2022-11-08T20:46:34.474Z,66.98
2022-11-08T20:49:04.649Z,67.71
2022-11-08T20:51:32.751Z,67.40
2022-11-08T20:54:00.841Z,67.30
2022-11-08T20:56:28.847Z,67.49
2022-11-08T20:58:56.124Z,67.48
2022-11-08T21:01:27.001Z,67.29
2022-11-08T21:03:55.081Z,66.99
2022-11-08T21:06:24.271Z,67.14
2022-11-08T21:09:04.937Z,67.56
2022-11-08T21:11:37.159Z,67.23
2022-11-08T21:14:05.270Z,67.32
2022-11-08T21:16:47.064Z,67.32
2022-11-08T21:19:19.720Z,67.66
2022-11-08T21:21:49.324Z,67.94
2022-11-08T21:24:17.079Z,67.66
2022-11-08T21:26:44.032Z,68.10
2022-11-08T21:29:10.984Z,68.14
2022-11-08T21:31:37.971Z,68.08
2022-11-08T21:34:04.907Z,67.99
2022-11-08T21:36:31.920Z,68.25
2022-11-08T21:38:58.937Z,68.52
2022-11-08T21:41:25.949Z,68.75
2022-11-08T21:43:52.888Z,69.26
2022-11-08T21:46:23.333Z,70.78
2022-11-08T21:48:56.603Z,69.93
2022-11-08T21:51:24.257Z,70.30
2022-11-08T21:53:55.234Z,70.82
2022-11-08T21:56:25.233Z,71.53
2022-11-08T21:58:52.938Z,73.04
2022-11-08T22:01:22.274Z,72.98
2022-11-08T22:03:52.875Z,73.27
2022-11-08T22:06:22.936Z,75.36
2022-11-08T22:08:49.922Z,75.85
2022-11-08T22:11:16.904Z,76.26
2022-11-08T22:13:44.049Z,77.30
2022-11-08T22:16:10.989Z,77.76
2022-11-08T22:21:37.852Z,76.38
2022-11-08T22:24:23.345Z,76.91
2022-11-08T22:26:51.914Z,75.57
2022-11-08T22:29:19.729Z,77.08
2022-11-08T22:31:47.591Z,76.93
2022-11-08T22:34:15.105Z,77.25
2022-11-08T22:36:45.288Z,76.73
2022-11-08T22:39:19.347Z,78.43
2022-11-08T22:41:48.896Z,78.52
2022-11-08T22:44:16.684Z,79.58
2022-11-08T22:46:45.821Z,79.75
2022-11-08T22:49:13.896Z,80.10
2022-11-08T22:51:42.145Z,79.86
2022-11-08T22:54:09.611Z,80.66
2022-11-08T22:56:37.501Z,79.90
2022-11-08T22:59:04.990Z,81.00
2022-11-08T23:01:32.611Z,80.97
2022-11-08T23:03:59.822Z,80.99
2022-11-08T23:06:26.826Z,80.67
2022-11-08T23:08:53.781Z,81.17
2022-11-08T23:11:39.116Z,81.26
2022-11-08T23:14:24.405Z,81.51
2022-11-08T23:16:51.346Z,81.37
2022-11-08T23:19:40.843Z,81.55
2022-11-08T23:22:33.032Z,81.42
2022-11-08T23:25:00.273Z,80.62
2022-11-08T23:27:46.566Z,81.76
2022-11-08T23:30:35.602Z,80.21
2022-11-08T23:33:05.673Z,81.87
2022-11-08T23:35:32.999Z,81.67
2022-11-08T23:38:00.145Z,81.74
2022-11-08T23:40:45.453Z,81.85
2022-11-08T23:43:37.591Z,82.48
2022-11-08T23:46:08.377Z,82.18
2022-11-08T23:48:36.970Z,81.13
2022-11-08T23:51:04.961Z,81.38
2022-11-08T23:53:34.744Z,81.72
2022-11-08T23:56:01.724Z,81.91
2022-11-08T23:58:28.715Z,81.79
